Vesper, Wisconsin
Current Conditions -  °F | °C
As of 6:54 AM on Thursday 30 Oct 2014 (Local Time) from KISW Reporting Station
Scattered Clouds Scattered Clouds  
Wind Chill: 33°   Ceiling: Unl
Heat Index: 33°   Visibility: 10mi
Dew Point: 32°   Wind: 0mph
Humidity: 96%   Direction: NA
Pressure: 30.09"   Gusts: NA
Location:  44.48°N, 89.96°W
Report Text: KISW 301154Z AUTO 00000KT 10SM SCT110 01/00 A3009 RMK AO2 SLP200 I6001 T00060000 10011 21011 55002
Loading
Personal Weather Stations






























Interactive Weather Map
Tropical Storm Tracking
New forecast layout! Learn more

10-Day Weather Forecast

Advertisements
Track Severe Weather on mobile